Main page
Satellite images 15-day forecastsClimateMarine weather Cyclones Lightning AirportsFAQ Newsletter About
Weather : Europe Africa North America South America Asia Australia-Oceania Others
Languages Contact

London-Southend, England

latitude: 51-34N, longitude: 000-42E, elevation: 15 m


METAR: EGMC 230850Z 21008KT 9999 BKN030 14/09 Q1020
TAF: EGMC 230800Z 2309/2318 22009KT 9999 BKN030 PROB40 TEMPO 2309/2318 7000 -RADZ BKN014 PROB30 2315/2318 BKN009

Time: 10:19 (09:19 UTC)

Current weather observation

The report was made 29 minutes ago, at 08:50 UTC
Wind 8 kt from the South/Southwest
Temperature 14°C
Humidity 72%
Pressure 1020 hPa
Visibility 10 km or more
Broken clouds at a height of 3000 ft

Change units

Forecast

The report was made 1 hour and 19 minutes ago, at 08:00 UTC
Forecast valid from 23 at 09 UTC to 23 at 18 UTC
Wind 9 kt from the Southwest
Visibility 10 km or more
Broken clouds at a height of 3000 ft
Probability 40% :
Temporary
from 23 at 09 UTC to 23 at 18 UTC
Visibility: 7000 m
Broken clouds at a height of 1400 ft
light rain drizzle
Probability 30%
from 23 at 15 UTC to 23 at 18 UTC
Broken clouds at a height of 900 ft
The information on this site is subject to a disclaimer
Weather : Europe Africa North America South America Asia Australia-Oceania Others
Satellite images 15-day forecastsClimateMarine weather Cyclones Lightning AirportsFAQ Languages Contact Newsletter About